createdAt,value
2022-07-26T00:00:12.605Z,96560.06
2022-07-26T00:02:39.811Z,96579.44
2022-07-26T00:05:14.327Z,96579.69
2022-07-26T00:07:41.631Z,96577.28
2022-07-26T00:10:08.644Z,96579.16
2022-07-26T00:12:35.661Z,96586.38
2022-07-26T00:15:02.494Z,96591.47
2022-07-26T00:17:30.106Z,96573.22
2022-07-26T00:19:56.684Z,96587.75
2022-07-26T00:22:35.481Z,96592.84
2022-07-26T00:25:07.575Z,96597.16
2022-07-26T00:27:37.190Z,96597.94
2022-07-26T00:30:08.850Z,96597.94
2022-07-26T00:32:36.057Z,96600.09
2022-07-26T00:35:02.904Z,96603.31
2022-07-26T00:37:29.505Z,96604.41
2022-07-26T00:39:56.338Z,96604.13
2022-07-26T00:42:22.988Z,96610.28
2022-07-26T00:44:49.687Z,96603.84
2022-07-26T00:47:17.216Z,96602.81
2022-07-26T00:49:44.269Z,96611.91
2022-07-26T00:52:11.490Z,96604.66
2022-07-26T00:54:40.267Z,96609.22
2022-07-26T00:57:07.335Z,96610.31
2022-07-26T00:59:34.061Z,96604.13
2022-07-26T01:02:01.546Z,96590.97
2022-07-26T01:04:28.648Z,96592.56
2022-07-26T01:06:55.821Z,96592.59
2022-07-26T01:09:22.790Z,96594.72
2022-07-26T01:11:49.674Z,96586.16
2022-07-26T01:14:21.735Z,96584.50
2022-07-26T01:16:48.917Z,96586.13
2022-07-26T01:19:15.715Z,96589.34
2022-07-26T01:21:42.380Z,96587.66
2022-07-26T01:24:09.431Z,96594.38
2022-07-26T01:26:36.304Z,96587.97
2022-07-26T01:29:03.478Z,96590.41
2022-07-26T01:31:30.246Z,96592.25
2022-07-26T01:33:56.900Z,96601.09
2022-07-26T01:36:23.765Z,96594.94
2022-07-26T01:38:50.566Z,96599.97
2022-07-26T01:41:17.255Z,96603.47
2022-07-26T01:43:58.284Z,96606.97
2022-07-26T01:46:24.930Z,96603.72
2022-07-26T01:48:52.261Z,96593.75
2022-07-26T01:51:19.360Z,96599.97
2022-07-26T01:53:46.080Z,96599.97
2022-07-26T01:56:14.012Z,96599.94
2022-07-26T01:58:43.332Z,96599.91
2022-07-26T02:01:10.054Z,96597.25
2022-07-26T02:03:36.862Z,96599.94
2022-07-26T02:06:05.207Z,96595.13
2022-07-26T02:08:32.285Z,96587.03
2022-07-26T02:11:00.523Z,96597.00
2022-07-26T02:13:37.410Z,96596.72
2022-07-26T02:16:06.356Z,96597.25
2022-07-26T02:18:33.658Z,96591.34
2022-07-26T02:21:01.733Z,96590.81
2022-07-26T02:23:29.281Z,96597.19
2022-07-26T02:25:56.327Z,96604.97
2022-07-26T02:28:23.844Z,96602.25
2022-07-26T02:30:51.291Z,96605.63
2022-07-26T02:33:19.990Z,96609.19
2022-07-26T02:35:47.279Z,96615.78
2022-07-26T02:38:15.935Z,96618.56
2022-07-26T02:40:42.932Z,96623.91
2022-07-26T02:43:10.549Z,96626.88
2022-07-26T02:45:38.350Z,96629.25
2022-07-26T02:48:05.139Z,96620.59
2022-07-26T02:50:32.210Z,96628.88
2022-07-26T02:53:13.893Z,96631.53
2022-07-26T02:55:40.498Z,96626.19
2022-07-26T02:58:07.112Z,96623.25
2022-07-26T03:00:33.824Z,96616.78
2022-07-26T03:03:01.016Z,96617.84
2022-07-26T03:05:27.769Z,96619.22
2022-07-26T03:07:54.442Z,96610.63
2022-07-26T03:10:21.456Z,96620.50
2022-07-26T03:12:48.163Z,96624.13
2022-07-26T03:15:14.929Z,96626.06
2022-07-26T03:17:41.529Z,96621.56
2022-07-26T03:20:08.917Z,96621.22
2022-07-26T03:22:35.558Z,96626.06
2022-07-26T03:25:02.275Z,96625.78
2022-07-26T03:27:28.896Z,96637.00
2022-07-26T03:29:55.534Z,96639.13
2022-07-26T03:32:22.219Z,96649.84
2022-07-26T03:34:49.005Z,96646.84
2022-07-26T03:37:15.758Z,96652.78
2022-07-26T03:39:42.482Z,96653.97
2022-07-26T03:42:09.109Z,96651.25
2022-07-26T03:44:35.768Z,96654.47
2022-07-26T03:47:02.457Z,96661.44
2022-07-26T03:49:29.391Z,96651.25
2022-07-26T03:51:56.054Z,96652.31
2022-07-26T03:54:22.896Z,96660.66
2022-07-26T03:56:49.606Z,96654.66
2022-07-26T03:59:17.870Z,96661.19
2022-07-26T04:01:49.581Z,96663.50
2022-07-26T04:04:18.211Z,96667.97
2022-07-26T04:06:46.888Z,96668.53
2022-07-26T04:09:14.776Z,96669.34
2022-07-26T04:11:42.658Z,96653.91
2022-07-26T04:14:10.605Z,96663.16
2022-07-26T04:16:42.923Z,96679.53
2022-07-26T04:19:11.146Z,96664.09
2022-07-26T04:21:39.432Z,96667.22
2022-07-26T04:24:07.511Z,96669.44
2022-07-26T04:26:34.538Z,96666.81
2022-07-26T04:29:01.192Z,96672.66
2022-07-26T04:31:27.897Z,96678.63
2022-07-26T04:34:03.022Z,96669.94
2022-07-26T04:36:29.684Z,96670.44
2022-07-26T04:38:56.241Z,96675.13
2022-07-26T04:41:22.910Z,96679.91
2022-07-26T04:43:49.586Z,96683.53
2022-07-26T04:46:16.556Z,96686.50
2022-07-26T04:48:43.243Z,96686.06
2022-07-26T04:51:09.879Z,96685.41
2022-07-26T04:53:36.853Z,96684.28
2022-07-26T04:56:03.720Z,96679.00
2022-07-26T04:58:30.364Z,96679.09
2022-07-26T05:01:14.443Z,96686.38
2022-07-26T05:03:41.115Z,96691.78
2022-07-26T05:06:08.148Z,96682.88
2022-07-26T05:08:34.714Z,96687.44
2022-07-26T05:11:01.351Z,96688.53
2022-07-26T05:13:29.799Z,96684.91
2022-07-26T05:15:59.477Z,96681.22
2022-07-26T05:18:27.088Z,96695.34
2022-07-26T05:20:56.966Z,96694.47
2022-07-26T05:23:23.540Z,96688.72
2022-07-26T05:25:50.175Z,96682.78
2022-07-26T05:28:16.741Z,96691.84
2022-07-26T05:30:43.539Z,96694.78
2022-07-26T05:33:10.151Z,96693.25
2022-07-26T05:35:41.004Z,96689.50
2022-07-26T05:38:07.591Z,96696.03
2022-07-26T05:40:34.178Z,96695.06
2022-07-26T05:43:00.904Z,96702.47
2022-07-26T05:45:27.531Z,96701.38
2022-07-26T05:47:54.167Z,96700.03
2022-07-26T05:50:20.771Z,96696.88
2022-07-26T05:52:47.614Z,96699.41
2022-07-26T05:55:14.890Z,96707.03
2022-07-26T05:57:47.525Z,96709.69
2022-07-26T06:00:17.106Z,96705.63
2022-07-26T06:02:43.815Z,96700.53
2022-07-26T06:05:10.868Z,96704.84
2022-07-26T06:07:37.691Z,96708.56
2022-07-26T06:10:05.106Z,96710.44
2022-07-26T06:12:31.787Z,96702.03
2022-07-26T06:14:58.370Z,96697.38
2022-07-26T06:17:25.111Z,96694.97
2022-07-26T06:19:51.859Z,96693.09
2022-07-26T06:22:18.448Z,96693.13
2022-07-26T06:24:45.013Z,96688.94
2022-07-26T06:27:11.594Z,96691.44
2022-07-26T06:29:38.201Z,96695.22
2022-07-26T06:32:05.051Z,96696.19
2022-07-26T06:34:31.795Z,96690.69
2022-07-26T06:36:58.908Z,96685.56
2022-07-26T06:39:25.581Z,96681.78
2022-07-26T06:41:53.242Z,96677.63
2022-07-26T06:44:19.883Z,96682.84
2022-07-26T06:46:46.502Z,96689.09
2022-07-26T06:49:13.217Z,96692.69
2022-07-26T06:51:39.893Z,96695.06
2022-07-26T06:54:06.773Z,96686.63
2022-07-26T06:56:33.548Z,96689.66
2022-07-26T06:59:00.228Z,96688.66
2022-07-26T07:01:57.617Z,96691.75
2022-07-26T07:04:13.411Z,96692.97
2022-07-26T07:06:40.032Z,96688.41
2022-07-26T07:09:08.813Z,96692.56
2022-07-26T07:11:35.728Z,96690.09
2022-07-26T07:14:03.452Z,96682.72
2022-07-26T07:16:30.279Z,96681.81
2022-07-26T07:18:57.208Z,96691.41
2022-07-26T07:21:23.805Z,96687.16
2022-07-26T07:23:50.402Z,96685.25
2022-07-26T07:26:16.975Z,96675.34
2022-07-26T07:28:43.603Z,96681.13
2022-07-26T07:31:10.276Z,96677.31
2022-07-26T07:33:52.862Z,96674.59
2022-07-26T07:36:21.090Z,96682.47
2022-07-26T07:38:48.817Z,96681.38
2022-07-26T07:41:15.986Z,96684.69
2022-07-26T07:43:42.550Z,96681.31
2022-07-26T07:46:09.155Z,96679.72
2022-07-26T07:48:37.595Z,96685.47
2022-07-26T07:51:04.433Z,96687.69
2022-07-26T07:53:31.766Z,96680.00
2022-07-26T07:55:58.604Z,96676.38
2022-07-26T07:58:25.282Z,96672.44
2022-07-26T08:00:55.098Z,96673.50
2022-07-26T08:03:21.803Z,96673.53
2022-07-26T08:05:49.776Z,96662.94
2022-07-26T08:08:18.688Z,96669.94
2022-07-26T08:10:51.929Z,96658.22
2022-07-26T08:13:21.606Z,96660.50
2022-07-26T08:15:52.114Z,96658.94
2022-07-26T08:18:21.673Z,96651.72
2022-07-26T08:20:50.616Z,96656.53
2022-07-26T08:23:17.642Z,96660.44
2022-07-26T08:25:55.736Z,96664.00
2022-07-26T08:28:46.342Z,96644.22
2022-07-26T08:31:10.209Z,96655.19
2022-07-26T08:33:36.839Z,96661.50
2022-07-26T08:36:07.696Z,96658.78
2022-07-26T08:38:34.342Z,96650.81
2022-07-26T08:41:01.029Z,96656.00
2022-07-26T08:43:27.748Z,96654.81
2022-07-26T08:46:01.872Z,96662.34
2022-07-26T08:48:29.295Z,96667.31
2022-07-26T08:50:56.504Z,96670.03
2022-07-26T08:53:24.175Z,96666.56
2022-07-26T08:56:06.761Z,96660.03
2022-07-26T08:58:36.788Z,96662.75
2022-07-26T09:01:08.516Z,96661.53
2022-07-26T09:03:39.283Z,96661.34
2022-07-26T09:06:15.742Z,96648.44
2022-07-26T09:08:43.267Z,96660.66
2022-07-26T09:11:25.123Z,96662.41
2022-07-26T09:13:53.922Z,96663.09
2022-07-26T09:16:21.027Z,96661.88
2022-07-26T09:18:47.780Z,96674.47
2022-07-26T09:21:31.943Z,96672.38
2022-07-26T09:23:59.514Z,96680.34
2022-07-26T09:26:27.048Z,96690.25
2022-07-26T09:29:11.208Z,96692.88
2022-07-26T09:31:39.548Z,96690.84
2022-07-26T09:34:07.730Z,96685.91
2022-07-26T09:36:53.803Z,96694.38
2022-07-26T09:39:33.329Z,96693.56
2022-07-26T09:44:58.157Z,96684.25
2022-07-26T09:47:39.085Z,96678.41
2022-07-26T09:50:19.056Z,96660.66
2022-07-26T09:53:07.472Z,96674.44
2022-07-26T09:55:45.187Z,96669.84
2022-07-26T09:58:14.251Z,96666.25
2022-07-26T10:00:41.680Z,96672.53
2022-07-26T10:03:08.429Z,96660.53
2022-07-26T10:05:37.031Z,96679.13
2022-07-26T10:08:05.144Z,96668.13
2022-07-26T10:10:41.582Z,96660.38
2022-07-26T10:13:09.174Z,96671.31
2022-07-26T10:15:49.228Z,96686.31
2022-07-26T10:18:38.179Z,96686.38
2022-07-26T10:21:31.631Z,96685.50
2022-07-26T10:24:00.338Z,96707.44
2022-07-26T10:26:33.050Z,96700.69
2022-07-26T10:29:26.905Z,96692.28
2022-07-26T10:31:56.228Z,96696.66
2022-07-26T10:34:35.102Z,96685.50
2022-07-26T10:37:04.855Z,96671.81
2022-07-26T10:39:32.172Z,96660.00
2022-07-26T10:42:04.983Z,96671.25
2022-07-26T10:44:36.136Z,96668.19
2022-07-26T10:47:07.239Z,96671.31
2022-07-26T10:49:35.359Z,96672.19
2022-07-26T10:52:14.543Z,96682.00
2022-07-26T10:54:59.668Z,96672.53
2022-07-26T10:57:37.881Z,96674.63
2022-07-26T11:00:09.605Z,96678.31
2022-07-26T11:02:36.833Z,96682.97
2022-07-26T11:05:12.998Z,96669.19
2022-07-26T11:08:10.454Z,96668.03
2022-07-26T11:10:38.900Z,96670.44
2022-07-26T11:13:08.431Z,96660.69
2022-07-26T11:15:37.863Z,96662.41
2022-07-26T11:18:13.015Z,96666.72
2022-07-26T11:20:40.718Z,96659.09
2022-07-26T11:23:46.838Z,96675.88
2022-07-26T11:26:21.692Z,96669.06
2022-07-26T11:28:51.315Z,96674.44
2022-07-26T11:31:19.286Z,96669.28
2022-07-26T11:33:50.943Z,96662.09
2022-07-26T11:36:19.761Z,96661.59
2022-07-26T11:38:52.436Z,96657.09
2022-07-26T11:41:21.107Z,96656.41
2022-07-26T11:44:02.521Z,96655.47
2022-07-26T11:46:57.758Z,96662.06
2022-07-26T11:49:51.717Z,96668.94
2022-07-26T11:52:13.323Z,96665.47
2022-07-26T11:54:51.626Z,96665.91
2022-07-26T11:57:19.252Z,96662.34
2022-07-26T11:59:48.234Z,96651.09
2022-07-26T12:02:15.649Z,96635.84
2022-07-26T12:04:46.017Z,96636.63
2022-07-26T12:07:18.478Z,96632.75
2022-07-26T12:09:49.963Z,96634.25
2022-07-26T12:12:20.959Z,96634.97
2022-07-26T12:14:56.534Z,96643.91
2022-07-26T12:17:24.136Z,96640.28
2022-07-26T12:19:50.981Z,96646.22
2022-07-26T12:22:19.695Z,96652.47
2022-07-26T12:24:52.518Z,96641.16
2022-07-26T12:27:28.232Z,96638.44
2022-07-26T12:30:13.526Z,96655.25
2022-07-26T12:32:42.476Z,96652.88
2022-07-26T12:35:10.180Z,96646.75
2022-07-26T12:37:45.941Z,96645.25
2022-07-26T12:40:18.398Z,96627.66
2022-07-26T12:43:01.242Z,96641.22
2022-07-26T12:45:34.026Z,96624.72
2022-07-26T12:48:03.541Z,96628.88
2022-07-26T12:50:31.755Z,96622.56
2022-07-26T12:53:07.044Z,96625.78
2022-07-26T12:55:34.563Z,96617.22
2022-07-26T12:58:02.486Z,96627.63
2022-07-26T13:00:30.134Z,96628.94
2022-07-26T13:02:57.534Z,96632.00
2022-07-26T13:05:24.269Z,96617.81
2022-07-26T13:07:51.995Z,96612.91
2022-07-26T13:10:35.610Z,96608.91
2022-07-26T13:13:03.886Z,96603.44
2022-07-26T13:15:37.021Z,96613.09
2022-07-26T13:18:08.297Z,96606.22
2022-07-26T13:20:36.656Z,96611.69
2022-07-26T13:23:03.415Z,96614.50
2022-07-26T13:25:36.995Z,96603.25
2022-07-26T13:28:07.119Z,96606.34
2022-07-26T13:30:33.807Z,96605.59
2022-07-26T13:33:00.463Z,96597.66
2022-07-26T13:35:27.043Z,96611.41
2022-07-26T13:37:53.644Z,96625.13
2022-07-26T13:40:20.255Z,96617.13
2022-07-26T13:42:49.940Z,96602.97
2022-07-26T13:45:16.696Z,96606.84
2022-07-26T13:47:43.710Z,96602.81
2022-07-26T13:50:11.436Z,96608.44
2022-07-26T13:52:38.161Z,96609.53
2022-07-26T13:55:05.235Z,96614.94
2022-07-26T13:57:47.987Z,96620.63
2022-07-26T14:00:20.149Z,96622.13
2022-07-26T14:02:46.913Z,96626.53
2022-07-26T14:05:13.694Z,96623.34
2022-07-26T14:07:42.481Z,96621.13
2022-07-26T14:10:09.395Z,96614.84
2022-07-26T14:12:37.267Z,96612.38
2022-07-26T14:15:11.274Z,96611.69
2022-07-26T14:17:39.573Z,96615.63
2022-07-26T14:20:07.034Z,96615.06
2022-07-26T14:22:33.776Z,96627.75
2022-07-26T14:25:00.416Z,96615.34
2022-07-26T14:27:27.090Z,96624.94
2022-07-26T14:29:53.701Z,96623.16
2022-07-26T14:32:22.032Z,96618.94
2022-07-26T14:34:49.530Z,96616.44
2022-07-26T14:37:43.762Z,96624.84
2022-07-26T14:40:04.454Z,96617.34
2022-07-26T14:42:31.025Z,96616.72
2022-07-26T14:44:57.624Z,96617.63
2022-07-26T14:47:24.260Z,96632.03
2022-07-26T14:49:51.002Z,96632.53
2022-07-26T14:52:17.746Z,96635.41
2022-07-26T14:54:44.398Z,96625.91
2022-07-26T14:57:11.130Z,96623.34
2022-07-26T14:59:37.726Z,96637.22
2022-07-26T15:02:05.962Z,96636.13
2022-07-26T15:04:33.171Z,96622.53
2022-07-26T15:07:00.097Z,96627.13
2022-07-26T15:09:26.657Z,96633.91
2022-07-26T15:11:53.278Z,96621.44
2022-07-26T15:14:19.928Z,96620.06
2022-07-26T15:16:46.654Z,96610.34
2022-07-26T15:19:13.516Z,96614.53
2022-07-26T15:21:40.243Z,96618.25
2022-07-26T15:24:07.556Z,96616.22
2022-07-26T15:26:34.391Z,96618.34
2022-07-26T15:29:00.981Z,96612.84
2022-07-26T15:31:37.039Z,96606.41
2022-07-26T15:34:07.557Z,96612.94
2022-07-26T15:36:34.717Z,96603.59
2022-07-26T15:39:14.745Z,96610.69
2022-07-26T15:41:43.208Z,96610.34
2022-07-26T15:44:11.514Z,96611.94
2022-07-26T15:46:39.747Z,96606.50
2022-07-26T15:49:07.567Z,96625.81
2022-07-26T15:51:34.459Z,96620.41
2022-07-26T15:54:02.605Z,96626.88
2022-07-26T15:56:29.255Z,96616.41
2022-07-26T15:58:55.860Z,96622.91
2022-07-26T16:01:22.520Z,96622.91
2022-07-26T16:03:49.189Z,96629.63
2022-07-26T16:06:15.798Z,96626.53
2022-07-26T16:09:05.880Z,96624.47
2022-07-26T16:11:30.661Z,96624.59
2022-07-26T16:14:00.980Z,96631.00
2022-07-26T16:16:28.178Z,96629.44
2022-07-26T16:18:55.910Z,96624.16
2022-07-26T16:21:22.740Z,96624.16
2022-07-26T16:23:50.922Z,96619.56
2022-07-26T16:26:18.587Z,96620.41
2022-07-26T16:28:45.288Z,96612.97
2022-07-26T16:31:12.093Z,96614.09
2022-07-26T16:33:46.041Z,96618.63
2022-07-26T16:36:15.173Z,96627.78
2022-07-26T16:38:42.755Z,96623.34
2022-07-26T16:41:10.229Z,96623.25
2022-07-26T16:43:37.834Z,96618.91
2022-07-26T16:46:04.464Z,96618.88
2022-07-26T16:48:32.745Z,96623.22
2022-07-26T16:50:59.697Z,96622.88
2022-07-26T16:53:26.808Z,96626.75
2022-07-26T16:55:53.534Z,96616.97
2022-07-26T16:58:21.433Z,96630.00
2022-07-26T17:00:49.149Z,96627.41
2022-07-26T17:03:16.148Z,96621.66
2022-07-26T17:05:43.862Z,96627.75
2022-07-26T17:08:10.562Z,96622.25
2022-07-26T17:10:37.199Z,96625.16
2022-07-26T17:13:04.472Z,96608.41
2022-07-26T17:15:31.103Z,96622.03
2022-07-26T17:17:57.745Z,96619.41
2022-07-26T17:20:24.412Z,96629.53
2022-07-26T17:22:51.159Z,96620.25
2022-07-26T17:25:17.835Z,96621.22
2022-07-26T17:27:44.516Z,96615.97
2022-07-26T17:30:11.986Z,96626.47
2022-07-26T17:32:38.652Z,96624.72
2022-07-26T17:35:06.761Z,96622.59
2022-07-26T17:37:36.665Z,96626.28
2022-07-26T17:40:07.984Z,96631.56
2022-07-26T17:42:35.700Z,96634.09
2022-07-26T17:45:02.509Z,96627.75
2022-07-26T17:47:30.804Z,96634.09
2022-07-26T17:50:26.196Z,96642.78
2022-07-26T17:52:50.911Z,96640.53
2022-07-26T17:55:19.100Z,96648.84
2022-07-26T17:57:47.918Z,96651.34
2022-07-26T18:00:15.946Z,96648.34
2022-07-26T18:02:42.820Z,96650.72
2022-07-26T18:05:18.388Z,96648.84
2022-07-26T18:07:45.314Z,96651.34
2022-07-26T18:10:12.134Z,96655.41
2022-07-26T18:12:49.953Z,96661.78
2022-07-26T18:15:16.643Z,96660.31
2022-07-26T18:17:43.812Z,96657.63
2022-07-26T18:20:11.041Z,96667.63
2022-07-26T18:22:37.843Z,96665.03
2022-07-26T18:25:09.724Z,96662.81
2022-07-26T18:27:36.505Z,96669.31
2022-07-26T18:30:04.543Z,96665.28
2022-07-26T18:32:31.228Z,96662.97
2022-07-26T18:34:57.892Z,96667.59
2022-07-26T18:37:24.683Z,96666.56
2022-07-26T18:39:57.060Z,96674.31
2022-07-26T18:42:36.807Z,96679.72
2022-07-26T18:45:04.079Z,96687.00
2022-07-26T18:47:30.738Z,96684.09
2022-07-26T18:49:57.346Z,96696.44
2022-07-26T18:52:28.657Z,96691.09
2022-07-26T18:55:12.638Z,96694.59
2022-07-26T18:57:43.827Z,96695.69
2022-07-26T19:00:19.129Z,96702.16
2022-07-26T19:02:46.939Z,96696.50
2022-07-26T19:05:16.273Z,96703.75
2022-07-26T19:07:43.470Z,96705.13
2022-07-26T19:10:10.662Z,96709.41
2022-07-26T19:12:37.597Z,96703.19
2022-07-26T19:15:06.456Z,96713.94
2022-07-26T19:17:33.802Z,96721.94
2022-07-26T19:20:26.350Z,96725.44
2022-07-26T19:22:53.133Z,96731.56
2022-07-26T19:25:29.736Z,96734.16
2022-07-26T19:27:56.466Z,96732.88
2022-07-26T19:30:29.315Z,96731.72
2022-07-26T19:32:56.004Z,96737.88
2022-07-26T19:35:22.785Z,96737.34
2022-07-26T19:38:00.648Z,96749.00
2022-07-26T19:40:35.357Z,96750.69
2022-07-26T19:43:03.963Z,96750.94
2022-07-26T19:45:30.557Z,96745.69
2022-07-26T19:47:57.185Z,96750.22
2022-07-26T19:50:25.793Z,96751.81
2022-07-26T19:52:52.434Z,96759.91
2022-07-26T19:55:38.341Z,96754.00
2022-07-26T19:58:05.129Z,96745.88
2022-07-26T20:00:31.702Z,96748.06
2022-07-26T20:03:02.425Z,96755.16
2022-07-26T20:05:29.068Z,96755.00
2022-07-26T20:07:57.795Z,96757.09
2022-07-26T20:10:28.567Z,96758.34
2022-07-26T20:12:58.270Z,96760.13
2022-07-26T20:15:29.999Z,96754.41
2022-07-26T20:17:56.859Z,96754.97
2022-07-26T20:20:23.468Z,96762.16
2022-07-26T20:22:54.577Z,96761.50
2022-07-26T20:25:23.720Z,96761.56
2022-07-26T20:27:51.482Z,96758.00
2022-07-26T20:30:21.754Z,96764.69
2022-07-26T20:32:48.387Z,96764.19
2022-07-26T20:35:15.340Z,96773.59
2022-07-26T20:37:43.641Z,96769.16
2022-07-26T20:40:11.959Z,96769.75
2022-07-26T20:42:53.819Z,96775.81
2022-07-26T20:45:26.149Z,96776.50
2022-07-26T20:47:54.087Z,96781.13
2022-07-26T20:50:21.623Z,96783.97
2022-07-26T20:52:48.852Z,96782.78
2022-07-26T20:55:18.017Z,96792.53
2022-07-26T20:57:45.783Z,96795.44
2022-07-26T21:00:14.925Z,96800.06
2022-07-26T21:02:43.219Z,96801.84
2022-07-26T21:05:10.445Z,96799.47
2022-07-26T21:07:56.010Z,96807.38
2022-07-26T21:10:25.048Z,96809.09
2022-07-26T21:12:53.033Z,96807.94
2022-07-26T21:15:30.505Z,96808.19
2022-07-26T21:17:58.333Z,96817.09
2022-07-26T21:20:25.451Z,96808.03
2022-07-26T21:22:52.080Z,96808.19
2022-07-26T21:25:18.788Z,96799.75
2022-07-26T21:27:45.448Z,96807.44
2022-07-26T21:30:12.503Z,96813.56
2022-07-26T21:32:39.146Z,96811.38
2022-07-26T21:35:13.828Z,96808.97
2022-07-26T21:37:44.792Z,96808.03
2022-07-26T21:40:12.975Z,96803.25
2022-07-26T21:42:39.879Z,96806.63
2022-07-26T21:45:07.315Z,96807.28
2022-07-26T21:47:33.915Z,96813.59
2022-07-26T21:50:00.525Z,96813.91
2022-07-26T21:52:27.164Z,96806.97
2022-07-26T21:54:53.792Z,96815.53
2022-07-26T21:57:20.496Z,96813.16
2022-07-26T21:59:47.107Z,96814.38
2022-07-26T22:02:13.799Z,96822.66
2022-07-26T22:04:40.702Z,96830.59
2022-07-26T22:07:10.383Z,96822.13
2022-07-26T22:09:37.028Z,96821.81
2022-07-26T22:12:03.764Z,96825.06
2022-07-26T22:14:30.600Z,96824.50
2022-07-26T22:17:05.094Z,96826.03
2022-07-26T22:19:31.687Z,96835.84
2022-07-26T22:21:58.367Z,96829.97
2022-07-26T22:24:24.930Z,96840.50
2022-07-26T22:27:22.291Z,96844.38
2022-07-26T22:29:48.899Z,96835.19
2022-07-26T22:32:15.564Z,96839.97
2022-07-26T22:34:42.281Z,96839.00
2022-07-26T22:37:09.047Z,96834.63
2022-07-26T22:39:35.722Z,96833.06
2022-07-26T22:42:15.284Z,96840.16
2022-07-26T22:44:42.176Z,96839.34
2022-07-26T22:47:08.779Z,96840.84
2022-07-26T22:49:35.481Z,96841.66
2022-07-26T22:52:02.184Z,96844.19
2022-07-26T22:54:28.749Z,96839.13
2022-07-26T22:56:55.395Z,96840.03
2022-07-26T22:59:22.827Z,96843.91
2022-07-26T23:01:49.426Z,96843.00
2022-07-26T23:04:23.492Z,96844.13
2022-07-26T23:06:50.481Z,96841.22
2022-07-26T23:09:17.065Z,96845.06
2022-07-26T23:11:43.860Z,96845.44
2022-07-26T23:14:11.438Z,96839.50
2022-07-26T23:16:38.561Z,96840.44
2022-07-26T23:19:05.446Z,96843.00
2022-07-26T23:21:32.044Z,96842.13
2022-07-26T23:23:58.678Z,96840.09
2022-07-26T23:26:25.250Z,96845.69
2022-07-26T23:28:52.069Z,96843.38
2022-07-26T23:31:18.815Z,96841.53
2022-07-26T23:33:51.265Z,96840.59
2022-07-26T23:36:20.490Z,96840.28
2022-07-26T23:38:49.135Z,96832.81
2022-07-26T23:41:15.805Z,96843.00
2022-07-26T23:43:42.400Z,96840.19
2022-07-26T23:46:08.966Z,96832.66
2022-07-26T23:48:35.600Z,96826.31
2022-07-26T23:51:02.256Z,96820.25
2022-07-26T23:53:28.879Z,96818.03
2022-07-26T23:55:55.511Z,96827.91
2022-07-26T23:58:22.112Z,96823.94
